createdAt,value
2022-09-30T00:00:56.240Z,70.48
2022-09-30T00:04:59.356Z,70.38
2022-09-30T00:09:04.960Z,70.50
2022-09-30T00:13:07.868Z,70.15
2022-09-30T00:17:10.887Z,70.45
2022-09-30T00:21:16.262Z,70.58
2022-09-30T00:25:20.595Z,70.22
2022-09-30T00:29:23.502Z,70.40
2022-09-30T00:33:26.456Z,70.38
2022-09-30T00:37:29.768Z,70.21
2022-09-30T00:41:34.218Z,70.43
2022-09-30T00:45:37.200Z,70.66
2022-09-30T00:49:40.275Z,70.53
2022-09-30T00:53:50.300Z,70.65
2022-09-30T00:57:56.320Z,70.89
2022-09-30T01:01:59.304Z,70.46
2022-09-30T01:06:03.323Z,70.83
2022-09-30T01:10:06.715Z,70.91
2022-09-30T01:14:14.987Z,71.01
2022-09-30T01:18:25.678Z,71.26
2022-09-30T01:22:42.077Z,71.33
2022-09-30T01:27:04.451Z,71.40
2022-09-30T01:31:19.519Z,71.56
2022-09-30T01:35:33.091Z,71.34
2022-09-30T01:39:43.765Z,71.82
2022-09-30T01:43:53.232Z,71.67
2022-09-30T01:48:01.872Z,71.81
2022-09-30T01:52:09.603Z,72.03
2022-09-30T01:56:18.015Z,72.16
2022-09-30T02:00:21.277Z,72.53
2022-09-30T02:04:32.448Z,72.61
2022-09-30T02:08:42.426Z,72.72
2022-09-30T02:12:51.690Z,72.81
2022-09-30T02:17:02.283Z,73.11
2022-09-30T02:21:10.244Z,73.42
2022-09-30T02:25:20.322Z,73.37
2022-09-30T02:29:30.416Z,73.36
2022-09-30T02:33:37.963Z,73.64
2022-09-30T02:37:45.020Z,73.58
2022-09-30T02:41:53.159Z,73.90
2022-09-30T02:46:06.766Z,73.99
2022-09-30T02:50:17.977Z,74.19
2022-09-30T02:54:32.636Z,74.51
2022-09-30T02:58:39.637Z,74.78
2022-09-30T03:02:43.423Z,75.27
2022-09-30T03:06:46.407Z,75.66
2022-09-30T03:10:52.687Z,76.11
2022-09-30T03:15:20.466Z,76.02
2022-09-30T03:19:42.295Z,76.25
2022-09-30T03:24:06.929Z,76.30
2022-09-30T03:28:23.110Z,76.78
2022-09-30T03:32:41.463Z,76.66
2022-09-30T03:36:53.006Z,76.99
2022-09-30T03:41:04.323Z,77.20
2022-09-30T03:45:13.492Z,77.19
2022-09-30T03:49:22.786Z,76.97
2022-09-30T03:53:26.294Z,77.33
2022-09-30T03:57:30.242Z,77.43
2022-09-30T04:01:34.749Z,77.27
2022-09-30T04:05:37.890Z,77.26
2022-09-30T04:09:41.298Z,77.58
2022-09-30T04:13:44.497Z,77.90
2022-09-30T04:17:49.657Z,77.81
2022-09-30T04:21:54.003Z,77.67
2022-09-30T04:25:57.075Z,77.86
2022-09-30T04:29:59.992Z,78.08
2022-09-30T04:34:04.514Z,78.29
2022-09-30T04:38:07.560Z,78.46
2022-09-30T04:42:11.318Z,78.50
2022-09-30T04:46:14.539Z,78.44
2022-09-30T04:50:19.578Z,78.52
2022-09-30T04:54:23.250Z,78.39
2022-09-30T04:58:26.405Z,78.73
2022-09-30T05:02:29.405Z,79.18
2022-09-30T05:06:35.319Z,79.20
2022-09-30T05:10:40.159Z,79.21
2022-09-30T05:14:43.052Z,79.58
2022-09-30T05:18:47.024Z,79.47
2022-09-30T05:23:01.469Z,79.51
2022-09-30T05:27:05.100Z,80.12
2022-09-30T05:31:08.303Z,80.33
2022-09-30T05:35:12.251Z,80.19
2022-09-30T05:39:16.791Z,80.11
2022-09-30T05:43:20.485Z,80.55
2022-09-30T05:47:24.051Z,80.80
2022-09-30T05:51:27.043Z,80.80
2022-09-30T05:56:20.439Z,80.82
2022-09-30T06:17:24.777Z,81.42
2022-09-30T06:21:29.027Z,81.51
2022-09-30T06:25:32.617Z,81.92
2022-09-30T06:29:35.445Z,81.87
2022-09-30T06:33:39.907Z,81.56
2022-09-30T06:38:33.507Z,82.03
2022-09-30T07:09:19.170Z,82.46
2022-09-30T07:13:22.298Z,82.54
2022-09-30T07:17:25.173Z,82.74
2022-09-30T07:21:30.514Z,82.80
2022-09-30T07:25:36.170Z,83.07
2022-09-30T07:30:03.974Z,83.03
2022-09-30T07:34:02.823Z,83.08
2022-09-30T07:38:05.783Z,82.52
2022-09-30T07:42:10.105Z,82.46
2022-09-30T07:46:16.566Z,82.36
2022-09-30T07:55:47.717Z,82.76
2022-09-30T07:59:51.915Z,82.80
2022-09-30T08:03:57.089Z,82.77
2022-09-30T08:08:00.510Z,82.53
2022-09-30T08:12:04.785Z,82.87
2022-09-30T08:16:09.443Z,82.81
2022-09-30T08:20:13.828Z,82.85
2022-09-30T08:24:18.665Z,82.59
2022-09-30T08:28:21.649Z,82.45
2022-09-30T08:32:26.315Z,82.54
2022-09-30T08:36:29.449Z,82.38
2022-09-30T08:40:39.173Z,82.04
2022-09-30T08:44:44.797Z,83.21
2022-09-30T08:49:03.331Z,82.51
2022-09-30T08:53:12.649Z,82.45
2022-09-30T08:57:15.921Z,82.38
2022-09-30T09:01:26.319Z,82.10
2022-09-30T09:05:40.245Z,81.96
2022-09-30T09:09:54.638Z,81.99
2022-09-30T09:14:03.658Z,80.81
2022-09-30T09:18:28.662Z,81.56
2022-09-30T09:22:34.468Z,81.69
2022-09-30T09:26:38.346Z,81.87
2022-09-30T09:30:48.642Z,81.57
2022-09-30T09:34:54.627Z,81.28
2022-09-30T09:39:12.442Z,80.79
2022-09-30T09:43:26.271Z,80.04
2022-09-30T09:47:32.268Z,79.92
2022-09-30T09:51:40.976Z,79.92
2022-09-30T09:55:45.449Z,80.07
2022-09-30T10:04:17.739Z,80.01
2022-09-30T10:08:22.835Z,79.71
2022-09-30T10:12:29.969Z,79.85
2022-09-30T10:16:35.892Z,79.93
2022-09-30T10:20:38.912Z,79.44
2022-09-30T10:24:42.092Z,79.15
2022-09-30T10:28:49.881Z,78.59
2022-09-30T10:32:53.110Z,78.45
2022-09-30T10:36:57.195Z,78.37
2022-09-30T10:41:00.453Z,78.03
2022-09-30T10:45:10.136Z,77.83
2022-09-30T10:49:26.654Z,77.97
2022-09-30T10:53:33.775Z,77.15
2022-09-30T10:57:38.257Z,77.24
2022-09-30T11:01:51.532Z,76.92
2022-09-30T11:06:00.604Z,76.43
2022-09-30T11:10:10.105Z,75.99
2022-09-30T11:14:28.184Z,75.57
2022-09-30T11:18:38.950Z,75.09
2022-09-30T11:22:48.272Z,75.33
2022-09-30T11:27:00.050Z,75.29
2022-09-30T11:31:13.702Z,74.87
2022-09-30T11:35:30.661Z,75.02
2022-09-30T11:39:51.955Z,74.59
2022-09-30T11:44:05.552Z,74.46
2022-09-30T11:48:23.291Z,74.25
2022-09-30T11:52:36.074Z,73.85
2022-09-30T11:56:49.474Z,73.94
2022-09-30T12:00:58.063Z,73.71
2022-09-30T12:05:07.283Z,73.45
2022-09-30T12:09:21.930Z,73.32
2022-09-30T12:13:28.633Z,72.95
2022-09-30T12:17:36.889Z,72.69
2022-09-30T12:21:43.905Z,71.92
2022-09-30T12:25:53.609Z,72.37
2022-09-30T12:30:21.032Z,72.13
2022-09-30T12:34:39.637Z,71.45
2022-09-30T12:38:59.007Z,71.19
2022-09-30T12:43:23.964Z,70.79
2022-09-30T12:47:36.752Z,70.21
2022-09-30T12:51:44.912Z,70.23
2022-09-30T12:55:48.381Z,70.33
2022-09-30T12:59:55.750Z,69.24
2022-09-30T13:04:17.750Z,69.57
2022-09-30T13:08:32.675Z,69.57
2022-09-30T13:12:43.981Z,69.59
2022-09-30T13:17:02.635Z,69.13
2022-09-30T13:21:21.747Z,68.79
2022-09-30T13:25:24.737Z,68.68
2022-09-30T13:29:39.930Z,68.45
2022-09-30T13:34:09.159Z,68.42
2022-09-30T13:38:20.291Z,68.53
2022-09-30T13:42:30.055Z,68.55
2022-09-30T13:46:39.953Z,68.45
2022-09-30T13:50:48.875Z,67.67
2022-09-30T13:54:54.966Z,67.47
2022-09-30T13:59:36.068Z,67.21
2022-09-30T14:03:57.810Z,67.34
2022-09-30T14:08:24.721Z,67.20
2022-09-30T14:12:49.913Z,67.12
2022-09-30T14:17:15.180Z,66.73
2022-09-30T14:21:35.173Z,66.93
2022-09-30T14:25:46.205Z,67.00
2022-09-30T14:29:58.253Z,66.51
2022-09-30T14:34:01.438Z,66.46
2022-09-30T14:38:07.138Z,66.51
2022-09-30T14:42:19.782Z,66.57
2022-09-30T14:46:30.678Z,66.28
2022-09-30T14:50:40.729Z,66.29
2022-09-30T14:54:49.370Z,66.52
2022-09-30T14:58:57.196Z,66.94
2022-09-30T15:03:01.107Z,67.10
2022-09-30T15:07:07.205Z,67.71
2022-09-30T15:11:10.494Z,68.09
2022-09-30T15:15:35.257Z,68.46
2022-09-30T15:19:44.271Z,68.13
2022-09-30T15:23:51.502Z,68.14
2022-09-30T15:27:55.299Z,68.20
2022-09-30T15:32:03.869Z,67.92
2022-09-30T15:36:09.693Z,68.12
2022-09-30T15:40:33.276Z,68.13
2022-09-30T15:44:40.642Z,68.39
2022-09-30T15:48:45.239Z,69.10
2022-09-30T15:52:48.750Z,68.83
2022-09-30T15:56:52.134Z,69.24
2022-09-30T16:01:10.220Z,69.34
2022-09-30T16:05:14.572Z,69.76
2022-09-30T16:09:23.476Z,70.00
2022-09-30T16:13:29.960Z,69.79
2022-09-30T16:17:36.372Z,69.87
2022-09-30T16:21:50.671Z,69.96
2022-09-30T16:26:13.663Z,69.95
2022-09-30T16:30:18.679Z,69.96
2022-09-30T16:34:24.675Z,69.97
2022-09-30T16:38:29.004Z,69.82
2022-09-30T16:42:33.103Z,69.92
2022-09-30T16:46:36.138Z,69.86
2022-09-30T16:50:43.196Z,70.04
2022-09-30T16:54:47.466Z,69.84
2022-09-30T16:58:50.575Z,69.91
2022-09-30T17:02:53.934Z,70.11
2022-09-30T17:06:58.943Z,70.02
2022-09-30T17:11:03.326Z,70.03
2022-09-30T17:15:06.853Z,70.24
2022-09-30T17:19:13.179Z,70.24
2022-09-30T17:23:17.849Z,70.34
2022-09-30T17:27:22.614Z,70.34
2022-09-30T17:31:29.335Z,70.31
2022-09-30T17:35:33.302Z,70.25
2022-09-30T17:39:36.181Z,70.49
2022-09-30T17:43:40.576Z,70.61
2022-09-30T17:47:43.952Z,70.68
2022-09-30T17:51:46.995Z,70.91
2022-09-30T17:56:01.503Z,70.75
2022-09-30T18:00:07.073Z,71.10
2022-09-30T18:04:11.324Z,71.07
2022-09-30T18:08:14.215Z,71.50
2022-09-30T18:12:17.417Z,71.32
2022-09-30T18:16:21.697Z,71.53
2022-09-30T18:20:25.637Z,71.87
2022-09-30T18:24:46.804Z,71.96
2022-09-30T18:28:50.809Z,72.26
2022-09-30T18:32:56.253Z,72.21
2022-09-30T18:37:06.673Z,72.55
2022-09-30T18:41:09.570Z,72.65
2022-09-30T18:45:14.133Z,72.87
2022-09-30T18:49:18.778Z,72.98
2022-09-30T18:53:22.312Z,73.35
2022-09-30T18:57:25.647Z,73.46
2022-09-30T19:01:28.815Z,73.46
2022-09-30T19:05:33.229Z,73.60
2022-09-30T19:09:36.473Z,73.63
2022-09-30T19:13:39.916Z,73.71
2022-09-30T19:17:43.144Z,73.53
2022-09-30T19:21:49.251Z,73.71
2022-09-30T19:25:54.386Z,73.94
2022-09-30T19:29:59.467Z,74.00
2022-09-30T19:34:02.941Z,74.43
2022-09-30T19:38:07.296Z,74.57
2022-09-30T19:42:11.923Z,74.68
2022-09-30T19:46:15.074Z,74.65
2022-09-30T19:50:18.243Z,74.86
2022-09-30T19:54:36.209Z,74.88
2022-09-30T19:58:45.018Z,75.06
2022-09-30T20:02:48.387Z,75.10
2022-09-30T20:06:53.763Z,75.34
2022-09-30T20:11:05.332Z,75.03
2022-09-30T20:15:37.421Z,75.21
2022-09-30T20:19:40.778Z,75.13
2022-09-30T20:23:45.908Z,75.11
2022-09-30T20:27:52.633Z,74.88
2022-09-30T20:31:55.971Z,75.24
2022-09-30T20:36:00.881Z,75.04
2022-09-30T20:40:04.758Z,74.95
2022-09-30T20:44:12.101Z,75.18
2022-09-30T20:48:15.629Z,75.29
2022-09-30T20:52:19.223Z,75.18
2022-09-30T20:56:23.474Z,75.28
2022-09-30T21:00:28.588Z,74.86
2022-09-30T21:04:31.460Z,75.32
2022-09-30T21:08:38.703Z,75.33
2022-09-30T21:12:42.910Z,75.28
2022-09-30T21:16:47.295Z,75.07
2022-09-30T21:20:57.454Z,75.03
2022-09-30T21:25:00.398Z,75.30
2022-09-30T21:29:04.117Z,74.90
2022-09-30T21:33:08.645Z,74.75
2022-09-30T21:37:11.996Z,74.72
2022-09-30T21:41:15.075Z,74.98
2022-09-30T21:45:20.088Z,74.45
2022-09-30T21:49:25.232Z,74.67
2022-09-30T21:53:29.277Z,75.00
2022-09-30T21:57:32.134Z,75.06
2022-09-30T22:01:35.556Z,75.09
2022-09-30T22:05:40.286Z,75.00
2022-09-30T22:09:43.447Z,74.91
2022-09-30T22:13:47.345Z,74.87
2022-09-30T22:17:51.362Z,75.37
2022-09-30T22:21:55.607Z,75.63
2022-09-30T22:25:58.581Z,75.51
2022-09-30T22:30:01.770Z,75.51
2022-09-30T22:34:26.207Z,75.55
2022-09-30T22:38:31.119Z,75.64
2022-09-30T22:42:35.764Z,75.67
2022-09-30T22:46:39.797Z,75.93
2022-09-30T22:50:42.857Z,76.11
2022-09-30T22:54:47.116Z,76.37
2022-09-30T22:58:49.975Z,76.33
2022-09-30T23:02:52.884Z,76.49
2022-09-30T23:06:56.608Z,76.62
2022-09-30T23:11:01.337Z,76.77
2022-09-30T23:15:05.379Z,76.95
2022-09-30T23:19:08.237Z,77.03
2022-09-30T23:23:11.337Z,77.04
2022-09-30T23:27:15.652Z,77.17
2022-09-30T23:31:19.679Z,77.53
2022-09-30T23:35:22.587Z,77.70
2022-09-30T23:39:25.712Z,77.69
2022-09-30T23:43:31.610Z,78.21
2022-09-30T23:47:34.531Z,77.82
2022-09-30T23:51:37.405Z,78.06
2022-09-30T23:55:40.893Z,78.23
2022-09-30T23:59:45.184Z,78.43
